sensor_id;sensor_type;location;lat;lon;timestamp;pressure;altitude;pressure_sealevel;temperature;humidity
36354;BME280;22383;51.114;13.666;2023-05-19T00:02:16;68218.03;;;9.28;100.00
36354;BME280;22383;51.114;13.666;2023-05-19T00:04:48;68219.72;;;9.30;100.00
36354;BME280;22383;51.114;13.666;2023-05-19T00:07:17;68219.72;;;9.30;100.00
36354;BME280;22383;51.114;13.666;2023-05-19T00:09:48;68222.94;;;9.30;100.00
36354;BME280;22383;51.114;13.666;2023-05-19T00:12:16;68218.03;;;9.28;100.00
36354;BME280;22383;51.114;13.666;2023-05-19T00:14:43;68215.56;;;9.31;100.00
36354;BME280;22383;51.114;13.666;2023-05-19T00:17:11;68210.28;;;9.23;100.00
36354;BME280;22383;51.114;13.666;2023-05-19T00:19:39;68211.22;;;9.22;100.00
36354;BME280;22383;51.114;13.666;2023-05-19T00:22:07;68212.75;;;9.21;100.00
36354;BME280;22383;51.114;13.666;2023-05-19T00:24:34;68205.94;;;9.22;100.00
36354;BME280;22383;51.114;13.666;2023-05-19T00:27:02;68215.75;;;9.26;100.00
36354;BME280;22383;51.114;13.666;2023-05-19T00:29:29;68198.22;;;9.10;100.00
36354;BME280;22383;51.114;13.666;2023-05-19T00:31:57;68177.81;;;8.92;100.00
36354;BME280;22383;51.114;13.666;2023-05-19T00:34:24;68160.81;;;8.76;100.00
36354;BME280;22383;51.114;13.666;2023-05-19T00:36:52;68138.59;;;8.61;100.00
36354;BME280;22383;51.114;13.666;2023-05-19T00:39:19;68141.22;;;8.61;100.00
36354;BME280;22383;51.114;13.666;2023-05-19T00:41:47;68136.69;;;8.57;100.00
36354;BME280;22383;51.114;13.666;2023-05-19T00:44:14;68136.88;;;8.52;100.00
36354;BME280;22383;51.114;13.666;2023-05-19T00:46:58;68124.97;;;8.48;100.00
36354;BME280;22383;51.114;13.666;2023-05-19T00:49:26;68128.00;;;8.46;100.00
36354;BME280;22383;51.114;13.666;2023-05-19T00:51:54;68124.97;;;8.48;100.00
36354;BME280;22383;51.114;13.666;2023-05-19T00:54:22;68130.47;;;8.51;100.00
36354;BME280;22383;51.114;13.666;2023-05-19T00:56:50;68146.69;;;8.63;100.00
36354;BME280;22383;51.114;13.666;2023-05-19T00:59:17;68153.28;;;8.74;100.00
36354;BME280;22383;51.114;13.666;2023-05-19T01:01:45;68163.28;;;8.81;100.00
36354;BME280;22383;51.114;13.666;2023-05-19T01:04:18;68156.31;;;8.72;100.00
36354;BME280;22383;51.114;13.666;2023-05-19T01:06:47;68153.47;;;8.69;100.00
36354;BME280;22383;51.114;13.666;2023-05-19T01:09:24;68170.44;;;8.85;100.00
36354;BME280;22383;51.114;13.666;2023-05-19T01:11:52;68159.72;;;8.75;100.00
36354;BME280;22383;51.114;13.666;2023-05-19T01:14:20;68161.59;;;8.79;100.00
36354;BME280;22383;51.114;13.666;2023-05-19T01:30:47;68146.31;;;8.65;100.00
36354;BME280;22383;51.114;13.666;2023-05-19T01:33:20;68150.63;;;8.67;100.00
36354;BME280;22383;51.114;13.666;2023-05-19T01:35:49;68159.31;;;8.77;100.00
36354;BME280;22383;51.114;13.666;2023-05-19T01:38:18;68145.94;;;8.67;100.00
36354;BME280;22383;51.114;13.666;2023-05-19T01:40:48;68133.66;;;8.51;100.00
36354;BME280;22383;51.114;13.666;2023-05-19T01:43:20;68126.88;;;8.45;100.00
36354;BME280;22383;51.114;13.666;2023-05-19T01:45:49;68126.28;;;8.45;100.00
36354;BME280;22383;51.114;13.666;2023-05-19T01:48:18;68118.75;;;8.43;100.00
36354;BME280;22383;51.114;13.666;2023-05-19T01:50:46;68111.75;;;8.34;100.00
36354;BME280;22383;51.114;13.666;2023-05-19T01:53:14;68113.84;;;8.33;100.00
36354;BME280;22383;51.114;13.666;2023-05-19T01:55:49;68115.16;;;8.37;100.00
36354;BME280;22383;51.114;13.666;2023-05-19T01:58:41;68116.84;;;8.39;100.00
36354;BME280;22383;51.114;13.666;2023-05-19T02:01:35;68127.44;;;8.46;100.00
36354;BME280;22383;51.114;13.666;2023-05-19T02:04:29;68131.41;;;8.49;100.00
36354;BME280;22383;51.114;13.666;2023-05-19T02:07:25;68124.25;;;8.45;100.00
36354;BME280;22383;51.114;13.666;2023-05-19T02:12:33;68125.34;;;8.46;100.00
36354;BME280;22383;51.114;13.666;2023-05-19T02:15:05;68122.16;;;8.46;100.00
36354;BME280;22383;51.114;13.666;2023-05-19T02:17:35;68112.34;;;8.35;100.00
36354;BME280;22383;51.114;13.666;2023-05-19T02:20:05;68098.53;;;8.20;100.00
36354;BME280;22383;51.114;13.666;2023-05-19T02:22:34;68083.47;;;8.08;100.00
36354;BME280;22383;51.114;13.666;2023-05-19T02:25:07;68080.63;;;7.99;100.00
36354;BME280;22383;51.114;13.666;2023-05-19T02:27:38;68072.88;;;7.94;100.00
36354;BME280;22383;51.114;13.666;2023-05-19T02:30:08;68058.38;;;7.83;100.00
36354;BME280;22383;51.114;13.666;2023-05-19T02:32:38;68045.94;;;7.72;100.00
36354;BME280;22383;51.114;13.666;2023-05-19T02:35:10;68031.81;;;7.59;100.00
36354;BME280;22383;51.114;13.666;2023-05-19T02:37:40;68029.91;;;7.55;100.00
36354;BME280;22383;51.114;13.666;2023-05-19T02:40:12;68012.56;;;7.42;100.00
36354;BME280;22383;51.114;13.666;2023-05-19T02:42:44;67998.25;;;7.33;100.00
36354;BME280;22383;51.114;13.666;2023-05-19T02:45:14;68008.03;;;7.37;100.00
36354;BME280;22383;51.114;13.666;2023-05-19T02:47:42;68005.41;;;7.37;100.00
36354;BME280;22383;51.114;13.666;2023-05-19T02:50:09;68009.53;;;7.36;100.00
36354;BME280;22383;51.114;13.666;2023-05-19T02:52:37;68007.47;;;7.37;100.00
36354;BME280;22383;51.114;13.666;2023-05-19T02:55:04;68002.19;;;7.30;100.00
36354;BME280;22383;51.114;13.666;2023-05-19T02:57:33;67992.75;;;7.24;100.00
36354;BME280;22383;51.114;13.666;2023-05-19T03:00:01;67996.53;;;7.25;100.00
36354;BME280;22383;51.114;13.666;2023-05-19T03:02:29;67996.72;;;7.27;100.00
36354;BME280;22383;51.114;13.666;2023-05-19T03:04:57;67998.22;;;7.26;100.00
36354;BME280;22383;51.114;13.666;2023-05-19T03:07:24;68010.88;;;7.40;100.00
36354;BME280;22383;51.114;13.666;2023-05-19T03:09:53;68006.53;;;7.38;100.00
36354;BME280;22383;51.114;13.666;2023-05-19T03:12:20;67989.94;;;7.21;100.00
36354;BME280;22383;51.114;13.666;2023-05-19T03:14:48;67981.44;;;7.13;100.00
36354;BME280;22383;51.114;13.666;2023-05-19T03:17:16;67974.13;;;7.07;100.00
36354;BME280;22383;51.114;13.666;2023-05-19T03:19:43;67969.41;;;7.00;100.00
36354;BME280;22383;51.114;13.666;2023-05-19T03:22:11;67954.91;;;6.89;100.00
36354;BME280;22383;51.114;13.666;2023-05-19T03:24:38;67951.28;;;6.84;100.00
36354;BME280;22383;51.114;13.666;2023-05-19T03:27:06;67935.31;;;6.74;100.00
36354;BME280;22383;51.114;13.666;2023-05-19T03:29:34;67936.25;;;6.72;100.00
36354;BME280;22383;51.114;13.666;2023-05-19T03:32:01;67943.03;;;6.78;100.00
36354;BME280;22383;51.114;13.666;2023-05-19T03:34:29;67943.59;;;6.79;100.00
36354;BME280;22383;51.114;13.666;2023-05-19T03:36:58;67940.56;;;6.74;100.00
36354;BME280;22383;51.114;13.666;2023-05-19T03:39:26;67937.38;;;6.73;100.00
36354;BME280;22383;51.114;13.666;2023-05-19T03:41:53;67948.47;;;6.81;100.00
36354;BME280;22383;51.114;13.666;2023-05-19T03:44:22;67940.19;;;6.76;100.00
36354;BME280;22383;51.114;13.666;2023-05-19T03:46:49;67937.94;;;6.74;100.00
36354;BME280;22383;51.114;13.666;2023-05-19T03:49:39;67946.22;;;6.79;100.00
36354;BME280;22383;51.114;13.666;2023-05-19T03:52:25;67930.78;;;6.70;100.00
36354;BME280;22383;51.114;13.666;2023-05-19T03:55:08;67927.19;;;6.64;100.00
36354;BME280;22383;51.114;13.666;2023-05-19T03:57:36;67919.84;;;6.57;100.00
36354;BME280;22383;51.114;13.666;2023-05-19T04:00:04;67932.28;;;6.69;100.00
36354;BME280;22383;51.114;13.666;2023-05-19T04:02:38;67924.94;;;6.62;100.00
36354;BME280;22383;51.114;13.666;2023-05-19T04:05:07;67932.66;;;6.67;100.00
36354;BME280;22383;51.114;13.666;2023-05-19T04:07:36;67922.84;;;6.62;100.00
36354;BME280;22383;51.114;13.666;2023-05-19T04:10:04;67914.94;;;6.55;100.00
36354;BME280;22383;51.114;13.666;2023-05-19T04:12:32;67926.63;;;6.63;100.00
36354;BME280;22383;51.114;13.666;2023-05-19T04:14:59;67953.56;;;6.86;100.00
36354;BME280;22383;51.114;13.666;2023-05-19T04:17:27;67957.53;;;6.89;100.00
36354;BME280;22383;51.114;13.666;2023-05-19T04:19:54;67959.81;;;6.98;100.00
36354;BME280;22383;51.114;13.666;2023-05-19T04:22:22;67977.88;;;7.08;100.00
36354;BME280;22383;51.114;13.666;2023-05-19T04:24:49;67963.00;;;6.99;100.00
36354;BME280;22383;51.114;13.666;2023-05-19T04:27:18;67971.09;;;7.02;100.00
36354;BME280;22383;51.114;13.666;2023-05-19T04:29:45;67983.53;;;7.13;100.00
36354;BME280;22383;51.114;13.666;2023-05-19T04:32:14;67980.88;;;7.13;100.00
36354;BME280;22383;51.114;13.666;2023-05-19T04:34:44;67980.72;;;7.17;100.00
36354;BME280;22383;51.114;13.666;2023-05-19T04:37:17;67982.59;;;7.14;100.00
36354;BME280;22383;51.114;13.666;2023-05-19T04:39:46;67980.13;;;7.10;100.00
36354;BME280;22383;51.114;13.666;2023-05-19T04:42:14;67990.34;;;7.26;100.00
36354;BME280;22383;51.114;13.666;2023-05-19T04:44:46;67996.75;;;7.34;100.00
36354;BME280;22383;51.114;13.666;2023-05-19T04:47:15;68026.16;;;7.54;100.00
36354;BME280;22383;51.114;13.666;2023-05-19T04:49:44;68019.34;;;7.48;100.00
36354;BME280;22383;51.114;13.666;2023-05-19T04:52:12;68013.53;;;7.47;100.00
36354;BME280;22383;51.114;13.666;2023-05-19T04:54:40;68024.25;;;7.57;100.00
36354;BME280;22383;51.114;13.666;2023-05-19T04:57:11;68041.78;;;7.66;100.00
36354;BME280;22383;51.114;13.666;2023-05-19T04:59:39;68037.09;;;7.66;100.00
36354;BME280;22383;51.114;13.666;2023-05-19T05:02:07;68032.16;;;7.64;100.00
36354;BME280;22383;51.114;13.666;2023-05-19T05:04:36;68047.06;;;7.73;100.00
36354;BME280;22383;51.114;13.666;2023-05-19T05:07:07;68051.41;;;7.82;100.00
36354;BME280;22383;51.114;13.666;2023-05-19T05:09:34;68057.81;;;7.83;100.00
36354;BME280;22383;51.114;13.666;2023-05-19T05:12:02;68053.69;;;7.84;100.00
36354;BME280;22383;51.114;13.666;2023-05-19T05:14:30;68054.41;;;7.80;100.00
36354;BME280;22383;51.114;13.666;2023-05-19T05:16:57;68062.91;;;7.87;100.00
36354;BME280;22383;51.114;13.666;2023-05-19T05:19:25;68074.41;;;8.00;100.00
36354;BME280;22383;51.114;13.666;2023-05-19T05:21:54;68076.13;;;8.02;100.00
36354;BME280;22383;51.114;13.666;2023-05-19T05:24:22;68077.81;;;8.03;100.00
36354;BME280;22383;51.114;13.666;2023-05-19T05:26:54;68094.78;;;8.19;100.00
36354;BME280;22383;51.114;13.666;2023-05-19T05:29:22;68126.09;;;8.42;100.00
36354;BME280;22383;51.114;13.666;2023-05-19T05:31:50;68140.09;;;8.60;100.00
36354;BME280;22383;51.114;13.666;2023-05-19T05:34:17;68151.41;;;8.70;100.00
36354;BME280;22383;51.114;13.666;2023-05-19T05:36:44;68170.81;;;8.83;100.00
36354;BME280;22383;51.114;13.666;2023-05-19T05:39:12;68191.41;;;9.04;100.00
36354;BME280;22383;51.114;13.666;2023-05-19T05:41:41;68208.19;;;9.17;100.00
36354;BME280;22383;51.114;13.666;2023-05-19T05:44:11;68217.66;;;9.30;100.00
36354;BME280;22383;51.114;13.666;2023-05-19T05:46:41;68233.31;;;9.42;100.00
36354;BME280;22383;51.114;13.666;2023-05-19T05:49:09;68227.66;;;9.37;100.00
36354;BME280;22383;51.114;13.666;2023-05-19T05:51:42;68243.13;;;9.53;100.00
36354;BME280;22383;51.114;13.666;2023-05-19T05:54:28;68255.03;;;9.64;100.00
36354;BME280;22383;51.114;13.666;2023-05-19T05:56:56;68260.34;;;9.71;100.00
36354;BME280;22383;51.114;13.666;2023-05-19T05:59:24;68276.00;;;9.83;100.00
36354;BME280;22383;51.114;13.666;2023-05-19T06:01:51;68279.78;;;9.84;100.00
36354;BME280;22383;51.114;13.666;2023-05-19T06:04:19;68273.34;;;9.83;100.00
36354;BME280;22383;51.114;13.666;2023-05-19T06:06:47;68303.00;;;10.05;100.00
36354;BME280;22383;51.114;13.666;2023-05-19T06:09:20;68301.69;;;10.09;100.00
36354;BME280;22383;51.114;13.666;2023-05-19T06:11:47;68325.47;;;10.23;100.00
36354;BME280;22383;51.114;13.666;2023-05-19T06:14:15;68303.94;;;10.11;100.00
36354;BME280;22383;51.114;13.666;2023-05-19T06:17:02;68315.47;;;10.16;100.00
36354;BME280;22383;51.114;13.666;2023-05-19T06:19:30;68332.69;;;10.34;100.00
36354;BME280;22383;51.114;13.666;2023-05-19T06:21:57;68343.84;;;10.42;100.00
36354;BME280;22383;51.114;13.666;2023-05-19T06:24:25;68357.63;;;10.57;100.00
36354;BME280;22383;51.114;13.666;2023-05-19T06:26:53;68378.03;;;10.75;100.00
36354;BME280;22383;51.114;13.666;2023-05-19T06:29:20;68383.72;;;10.81;100.00
36354;BME280;22383;51.114;13.666;2023-05-19T06:31:49;68380.88;;;10.78;100.00
36354;BME280;22383;51.114;13.666;2023-05-19T06:34:18;68374.06;;;10.72;100.00
36354;BME280;22383;51.114;13.666;2023-05-19T06:36:47;68379.00;;;10.74;100.00
36354;BME280;22383;51.114;13.666;2023-05-19T06:39:17;68404.13;;;10.99;100.00
36354;BME280;22383;51.114;13.666;2023-05-19T06:41:45;68430.59;;;11.28;100.00
36354;BME280;22383;51.114;13.666;2023-05-19T06:44:25;68457.44;;;11.47;100.00
36354;BME280;22383;51.114;13.666;2023-05-19T06:46:53;68479.38;;;11.72;100.00
36354;BME280;22383;51.114;13.666;2023-05-19T06:49:21;68545.25;;;12.24;100.00
36354;BME280;22383;51.114;13.666;2023-05-19T06:51:49;68613.56;;;12.89;100.00
36354;BME280;22383;51.114;13.666;2023-05-19T06:54:16;68629.88;;;13.01;100.00
36354;BME280;22383;51.114;13.666;2023-05-19T06:56:44;68695.56;;;13.65;100.00
36354;BME280;22383;51.114;13.666;2023-05-19T06:59:13;68707.50;;;13.76;100.00
36354;BME280;22383;51.114;13.666;2023-05-19T07:01:43;68743.88;;;14.09;100.00
36354;BME280;22383;51.114;13.666;2023-05-19T07:04:13;68745.59;;;14.10;100.00
36354;BME280;22383;51.114;13.666;2023-05-19T07:06:41;68717.00;;;13.82;100.00
36354;BME280;22383;51.114;13.666;2023-05-19T07:09:11;68749.22;;;14.09;100.00
36354;BME280;22383;51.114;13.666;2023-05-19T07:11:39;68735.38;;;14.01;100.00
36354;BME280;22383;51.114;13.666;2023-05-19T07:14:09;68738.59;;;14.02;100.00
36354;BME280;22383;51.114;13.666;2023-05-19T07:16:36;68702.41;;;13.71;100.00
36354;BME280;22383;51.114;13.666;2023-05-19T07:19:05;68674.94;;;13.44;100.00
36354;BME280;22383;51.114;13.666;2023-05-19T07:21:32;68627.22;;;13.01;100.00
36354;BME280;22383;51.114;13.666;2023-05-19T07:24:00;68637.22;;;13.08;100.00
36354;BME280;22383;51.114;13.666;2023-05-19T07:26:28;68648.59;;;13.18;100.00
36354;BME280;22383;51.114;13.666;2023-05-19T07:28:55;68706.38;;;13.75;100.00
36354;BME280;22383;51.114;13.666;2023-05-19T07:31:24;68836.59;;;14.92;100.00
36354;BME280;22383;51.114;13.666;2023-05-19T07:33:52;68877.38;;;15.27;100.00
36354;BME280;22383;51.114;13.666;2023-05-19T07:36:21;68866.97;;;15.15;100.00
36354;BME280;22383;51.114;13.666;2023-05-19T07:38:51;68812.72;;;14.71;100.00
36354;BME280;22383;51.114;13.666;2023-05-19T07:41:23;68690.66;;;13.63;100.00
36354;BME280;22383;51.114;13.666;2023-05-19T07:43:51;68687.25;;;13.53;100.00
36354;BME280;22383;51.114;13.666;2023-05-19T07:46:19;68758.47;;;14.19;100.00
36354;BME280;22383;51.114;13.666;2023-05-19T07:48:48;68808.94;;;14.63;100.00
36354;BME280;22383;51.114;13.666;2023-05-19T07:51:16;68789.94;;;14.50;100.00
36354;BME280;22383;51.114;13.666;2023-05-19T07:53:43;68861.84;;;15.10;100.00
36354;BME280;22383;51.114;13.666;2023-05-19T07:56:13;68849.50;;;15.02;100.00
36354;BME280;22383;51.114;13.666;2023-05-19T07:58:40;68831.69;;;14.83;100.00
36354;BME280;22383;51.114;13.666;2023-05-19T08:01:08;68810.81;;;14.67;100.00
36354;BME280;22383;51.114;13.666;2023-05-19T08:03:35;68795.63;;;14.55;100.00
36354;BME280;22383;51.114;13.666;2023-05-19T08:06:03;68779.13;;;14.41;100.00
36354;BME280;22383;51.114;13.666;2023-05-19T08:08:31;68835.44;;;14.91;100.00
36354;BME280;22383;51.114;13.666;2023-05-19T08:11:03;68845.91;;;14.96;100.00
36354;BME280;22383;51.114;13.666;2023-05-19T08:13:31;68855.00;;;15.04;100.00
36354;BME280;22383;51.114;13.666;2023-05-19T08:15:59;68916.66;;;15.62;100.00
36354;BME280;22383;51.114;13.666;2023-05-19T08:18:27;68939.81;;;15.81;98.28
36354;BME280;22383;51.114;13.666;2023-05-19T08:20:54;68945.88;;;15.91;100.00
36354;BME280;22383;51.114;13.666;2023-05-19T08:23:22;68948.53;;;15.91;100.00
36354;BME280;22383;51.114;13.666;2023-05-19T08:25:49;68914.38;;;15.60;100.00
36354;BME280;22383;51.114;13.666;2023-05-19T08:28:17;68919.09;;;15.67;98.39
36354;BME280;22383;51.114;13.666;2023-05-19T08:30:44;68889.91;;;15.38;99.75
36354;BME280;22383;51.114;13.666;2023-05-19T08:33:12;68858.22;;;15.12;100.00
36354;BME280;22383;51.114;13.666;2023-05-19T08:35:40;68819.16;;;14.72;100.00
36354;BME280;22383;51.114;13.666;2023-05-19T08:38:07;68780.28;;;14.42;100.00
36354;BME280;22383;51.114;13.666;2023-05-19T08:40:36;68792.59;;;14.50;100.00
36354;BME280;22383;51.114;13.666;2023-05-19T08:43:04;68811.97;;;14.68;100.00
36354;BME280;22383;51.114;13.666;2023-05-19T08:45:32;68848.53;;;15.03;100.00
36354;BME280;22383;51.114;13.666;2023-05-19T08:48:01;68921.94;;;15.69;100.00
36354;BME280;22383;51.114;13.666;2023-05-19T08:50:30;68977.16;;;16.19;100.00
36354;BME280;22383;51.114;13.666;2023-05-19T08:53:08;68959.53;;;16.03;100.00
36354;BME280;22383;51.114;13.666;2023-05-19T08:58:28;68940.72;;;15.86;100.00
36354;BME280;22383;51.114;13.666;2023-05-19T09:00:56;68964.66;;;16.08;100.00
36354;BME280;22383;51.114;13.666;2023-05-19T09:03:26;69065.69;;;16.94;100.00
36354;BME280;22383;51.114;13.666;2023-05-19T09:05:55;69062.63;;;16.96;100.00
36354;BME280;22383;51.114;13.666;2023-05-19T09:08:23;69040.03;;;16.71;98.46
36354;BME280;22383;51.114;13.666;2023-05-19T09:10:50;69029.19;;;16.61;98.05
36354;BME280;22383;51.114;13.666;2023-05-19T09:13:17;69052.00;;;16.82;97.30
36354;BME280;22383;51.114;13.666;2023-05-19T09:15:45;68976.59;;;16.19;100.00
36354;BME280;22383;51.114;13.666;2023-05-19T09:18:14;68986.09;;;16.25;100.00
36354;BME280;22383;51.114;13.666;2023-05-19T09:20:45;68991.22;;;16.30;100.00
36354;BME280;22383;51.114;13.666;2023-05-19T09:23:14;68986.28;;;16.28;100.00
36354;BME280;22383;51.114;13.666;2023-05-19T09:25:49;68941.72;;;15.85;100.00
36354;BME280;22383;51.114;13.666;2023-05-19T09:31:11;68992.19;;;16.28;100.00
36354;BME280;22383;51.114;13.666;2023-05-19T09:33:40;68958.78;;;16.00;99.42
36354;BME280;22383;51.114;13.666;2023-05-19T09:36:12;68945.31;;;15.91;100.00
36354;BME280;22383;51.114;13.666;2023-05-19T09:38:40;68958.97;;;16.03;100.00
36354;BME280;22383;51.114;13.666;2023-05-19T09:41:07;68926.31;;;15.71;96.16
36354;BME280;22383;51.114;13.666;2023-05-19T09:43:35;68895.59;;;15.43;97.81
36354;BME280;22383;51.114;13.666;2023-05-19T09:46:07;68924.38;;;15.74;100.00
36354;BME280;22383;51.114;13.666;2023-05-19T09:48:39;68929.38;;;15.76;100.00
36354;BME280;22383;51.114;13.666;2023-05-19T09:51:07;68942.84;;;15.86;100.00
36354;BME280;22383;51.114;13.666;2023-05-19T09:53:37;68939.59;;;15.85;100.00
36354;BME280;22383;51.114;13.666;2023-05-19T09:56:07;68967.88;;;16.09;100.00
36354;BME280;22383;51.114;13.666;2023-05-19T09:58:35;69039.63;;;16.73;100.00
36354;BME280;22383;51.114;13.666;2023-05-19T10:01:03;69047.59;;;16.80;97.27
36354;BME280;22383;51.114;13.666;2023-05-19T10:03:33;69037.53;;;16.74;94.32
36354;BME280;22383;51.114;13.666;2023-05-19T10:06:03;69026.31;;;16.66;99.98
36354;BME280;22383;51.114;13.666;2023-05-19T10:08:32;69060.91;;;16.95;96.44
36354;BME280;22383;51.114;13.666;2023-05-19T10:11:00;69066.44;;;16.97;96.83
36354;BME280;22383;51.114;13.666;2023-05-19T10:13:29;69037.94;;;16.72;97.94
36354;BME280;22383;51.114;13.666;2023-05-19T10:15:58;69042.66;;;16.78;100.00
36354;BME280;22383;51.114;13.666;2023-05-19T10:18:27;69006.78;;;16.46;100.00
36354;BME280;22383;51.114;13.666;2023-05-19T10:20:56;68973.97;;;16.12;98.83
36354;BME280;22383;51.114;13.666;2023-05-19T10:23:25;68987.81;;;16.26;100.00
36354;BME280;22383;51.114;13.666;2023-05-19T10:25:55;69008.88;;;16.45;100.00
36354;BME280;22383;51.114;13.666;2023-05-19T10:28:26;68947.97;;;15.91;100.00
36354;BME280;22383;51.114;13.666;2023-05-19T10:31:00;68903.72;;;15.53;100.00
36354;BME280;22383;51.114;13.666;2023-05-19T10:39:31;69008.47;;;16.48;100.00
36354;BME280;22383;51.114;13.666;2023-05-19T10:42:17;69078.00;;;17.10;98.08
36354;BME280;22383;51.114;13.666;2023-05-19T10:47:43;69184.41;;;18.04;100.00
36354;BME280;22383;51.114;13.666;2023-05-19T10:50:11;69199.25;;;18.17;92.42
36354;BME280;22383;51.114;13.666;2023-05-19T10:52:39;69128.72;;;17.56;93.46
36354;BME280;22383;51.114;13.666;2023-05-19T10:55:13;69129.84;;;17.57;91.55
36354;BME280;22383;51.114;13.666;2023-05-19T10:57:53;69113.72;;;17.40;92.24
36354;BME280;22383;51.114;13.666;2023-05-19T11:00:27;69080.84;;;17.13;94.36
36354;BME280;22383;51.114;13.666;2023-05-19T11:03:15;69060.75;;;16.92;100.00
36354;BME280;22383;51.114;13.666;2023-05-19T11:05:44;69128.53;;;17.53;99.09
36354;BME280;22383;51.114;13.666;2023-05-19T11:08:12;69155.16;;;17.75;97.26
36354;BME280;22383;51.114;13.666;2023-05-19T11:10:43;69157.22;;;17.82;92.69
36354;BME280;22383;51.114;13.666;2023-05-19T11:13:18;69134.06;;;17.56;90.90
36354;BME280;22383;51.114;13.666;2023-05-19T11:15:49;69143.53;;;17.69;94.78
36354;BME280;22383;51.114;13.666;2023-05-19T11:18:18;69143.53;;;17.69;95.26
36354;BME280;22383;51.114;13.666;2023-05-19T11:20:54;69153.63;;;17.76;93.28
36354;BME280;22383;51.114;13.666;2023-05-19T11:23:24;69216.34;;;18.32;98.22
36354;BME280;22383;51.114;13.666;2023-05-19T11:25:52;69214.06;;;18.30;93.11
36354;BME280;22383;51.114;13.666;2023-05-19T11:28:23;69096.81;;;17.27;96.97
36354;BME280;22383;51.114;13.666;2023-05-19T11:30:54;69052.38;;;16.87;100.00
36354;BME280;22383;51.114;13.666;2023-05-19T11:33:24;69037.13;;;16.76;100.00
36354;BME280;22383;51.114;13.666;2023-05-19T11:35:56;69035.81;;;16.72;100.00
36354;BME280;22383;51.114;13.666;2023-05-19T11:38:25;69070.44;;;17.01;100.00
36354;BME280;22383;51.114;13.666;2023-05-19T11:40:55;69063.38;;;16.99;100.00
36354;BME280;22383;51.114;13.666;2023-05-19T11:43:23;69093.22;;;17.22;100.00
36354;BME280;22383;51.114;13.666;2023-05-19T11:45:52;69107.28;;;17.32;100.00
36354;BME280;22383;51.114;13.666;2023-05-19T11:48:20;69101.75;;;17.29;100.00
36354;BME280;22383;51.114;13.666;2023-05-19T11:50:49;69107.06;;;17.36;100.00
36354;BME280;22383;51.114;13.666;2023-05-19T11:53:20;69138.59;;;17.67;100.00
36354;BME280;22383;51.114;13.666;2023-05-19T11:55:47;69110.09;;;17.42;98.54
36354;BME280;22383;51.114;13.666;2023-05-19T11:58:16;69127.97;;;17.53;95.20
36354;BME280;22383;51.114;13.666;2023-05-19T12:00:44;69098.34;;;17.26;98.48
36354;BME280;22383;51.114;13.666;2023-05-19T12:03:14;69114.47;;;17.43;100.00
36354;BME280;22383;51.114;13.666;2023-05-19T12:05:43;69121.53;;;17.45;100.00
36354;BME280;22383;51.114;13.666;2023-05-19T12:08:13;69140.84;;;17.69;100.00
36354;BME280;22383;51.114;13.666;2023-05-19T12:10:42;69099.47;;;17.27;100.00
36354;BME280;22383;51.114;13.666;2023-05-19T12:13:11;69056.34;;;16.91;100.00
36354;BME280;22383;51.114;13.666;2023-05-19T12:15:39;69095.50;;;17.24;100.00
36354;BME280;22383;51.114;13.666;2023-05-19T12:18:06;69097.56;;;17.30;100.00
36354;BME280;22383;51.114;13.666;2023-05-19T12:20:34;69091.66;;;17.23;100.00
36354;BME280;22383;51.114;13.666;2023-05-19T12:23:04;69106.88;;;17.34;100.00
36354;BME280;22383;51.114;13.666;2023-05-19T12:25:32;69102.16;;;17.27;100.00
36354;BME280;22383;51.114;13.666;2023-05-19T12:28:01;69051.81;;;16.87;100.00
36354;BME280;22383;51.114;13.666;2023-05-19T12:30:33;69094.75;;;17.20;100.00
36354;BME280;22383;51.114;13.666;2023-05-19T12:33:02;69132.69;;;17.60;100.00
36354;BME280;22383;51.114;13.666;2023-05-19T12:35:31;69172.03;;;17.95;100.00
36354;BME280;22383;51.114;13.666;2023-05-19T12:38:06;69195.41;;;18.16;100.00
36354;BME280;22383;51.114;13.666;2023-05-19T12:40:35;69173.19;;;17.96;98.91
36354;BME280;22383;51.114;13.666;2023-05-19T12:43:04;69154.75;;;17.77;100.00
36354;BME280;22383;51.114;13.666;2023-05-19T12:45:35;69149.63;;;17.72;100.00
36354;BME280;22383;51.114;13.666;2023-05-19T12:48:10;69127.75;;;17.57;100.00
36354;BME280;22383;51.114;13.666;2023-05-19T12:50:38;69073.09;;;17.01;100.00
36354;BME280;22383;51.114;13.666;2023-05-19T12:53:13;69080.84;;;17.13;100.00
36354;BME280;22383;51.114;13.666;2023-05-19T12:55:42;69036.81;;;16.71;100.00
36354;BME280;22383;51.114;13.666;2023-05-19T12:58:11;69017.03;;;16.55;100.00
36354;BME280;22383;51.114;13.666;2023-05-19T13:00:40;69048.38;;;16.84;100.00
36354;BME280;22383;51.114;13.666;2023-05-19T13:03:14;69099.28;;;17.25;100.00
36354;BME280;22383;51.114;13.666;2023-05-19T13:05:48;69129.09;;;17.54;100.00
36354;BME280;22383;51.114;13.666;2023-05-19T13:08:23;69112.41;;;17.36;100.00
36354;BME280;22383;51.114;13.666;2023-05-19T13:10:51;69113.91;;;17.43;100.00
36354;BME280;22383;51.114;13.666;2023-05-19T13:13:18;69101.91;;;17.32;100.00
36354;BME280;22383;51.114;13.666;2023-05-19T13:15:46;69106.31;;;17.33;100.00
36354;BME280;22383;51.114;13.666;2023-05-19T13:18:17;69083.34;;;17.10;100.00
36354;BME280;22383;51.114;13.666;2023-05-19T13:20:45;69093.78;;;17.22;100.00
36354;BME280;22383;51.114;13.666;2023-05-19T13:23:13;69094.34;;;17.23;100.00
36354;BME280;22383;51.114;13.666;2023-05-19T13:25:41;69078.00;;;17.10;100.00
36354;BME280;22383;51.114;13.666;2023-05-19T13:28:09;69067.75;;;17.01;100.00
36354;BME280;22383;51.114;13.666;2023-05-19T13:30:38;69078.41;;;17.08;100.00